Time;durP1;ratioP1;P1;durP2;ratioP2;P2;SDS_P1;SDS_P2;PMS_P1;PMS_P2;Temp;Humidity;BMP_temperature;BMP_pressure;BME280_temperature;BME280_humidity;BME280_pressure;Samples;Min_cycle;Max_cycle;Signal;HPM_P1;HPM_P2
2023/11/12 00:01:56;;;;;;;;;;;;;;;;;;5026039;28;19932;-60
2023/11/12 00:04:23;;;;;;;;;;;;;;;;;;5031785;28;19953;-59
2023/11/12 00:06:51;;;;;;;;;;;;;;;;;;5028473;28;19921;-60
2023/11/12 00:09:18;;;;;;;;;;;;;;;;;;5031361;28;20423;-57
2023/11/12 00:11:45;;;;;;;;;;;;;;;;;;5026620;28;20024;-60
2023/11/12 00:14:11;;;;;;;;;;;;;;;;;;5028165;28;19960;-60
2023/11/12 00:16:39;;;;;;;;;;;;;;;;;;5033403;28;19921;-57
2023/11/12 00:19:05;;;;;;;;;;;;;;;;;;5032984;28;20660;-59
2023/11/12 00:21:32;;;;;;;;;;;;;;;;;;5032788;28;19920;-59
2023/11/12 00:24:02;;;;;;;;;;;;;;;;;;5030859;28;19943;-59
2023/11/12 00:26:29;;;;;;;;;;;;;;;;;;5031801;28;19925;-59
2023/11/12 00:28:55;;;;;;;;;;;;;;;;;;5032260;28;20010;-58
2023/11/12 00:31:22;;;;;;;;;;;;;;;;;;5031432;28;19964;-60
2023/11/12 00:33:49;;;;;;;;;;;;;;;;;;5029394;28;19921;-59
2023/11/12 00:36:15;;;;;;;;;;;;;;;;;;5032043;28;19983;-58
2023/11/12 00:38:42;;;;;;;;;;;;;;;;;;5032168;28;19921;-59
2023/11/12 00:41:10;;;;;;;;;;;;;;;;;;5032226;28;20034;-59
2023/11/12 00:43:36;;;;;;;;;;;;;;;;;;5032266;28;19929;-59
2023/11/12 00:46:12;;;;;;;;;;;;;;;;;;5033045;28;19921;-59
2023/11/12 00:48:39;;;;;;;;;;;;;;;;;;5027860;28;20415;-59
2023/11/12 00:51:05;;;;;;;;;;;;;;;;;;5032722;28;19928;-59
2023/11/12 00:53:32;;;;;;;;;;;;;;;;;;5031505;28;19928;-60
2023/11/12 00:55:59;;;;;;;;;;;;;;;;;;5031024;28;20376;-60
2023/11/12 00:58:28;;;;;;;;;;;;;;;;;;5031724;28;19921;-60
2023/11/12 01:00:54;;;;;;;;;;;;;;;;;;5032116;28;20021;-59
2023/11/12 01:03:20;;;;;;;;;;;;;;;;;;5031830;28;19921;-59
2023/11/12 01:05:47;;;;;;;;;;;;;;;;;;5031984;28;20004;-59
2023/11/12 01:08:14;;;;;;;;;;;;;;;;;;5032095;28;20348;-58
2023/11/12 01:10:40;;;;;;;;;;;;;;;;;;5029621;28;19925;-59
2023/11/12 01:13:07;;;;;;;;;;;;;;;;;;5027540;28;19980;-58
2023/11/12 01:15:35;;;;;;;;;;;;;;;;;;5029442;28;19921;-58
2023/11/12 01:18:01;;;;;;;;;;;;;;;;;;5031966;28;19986;-58
2023/11/12 01:20:27;;;;;;;;;;;;;;;;;;5032477;28;19960;-59
2023/11/12 01:22:54;;;;;;;;;;;;;;;;;;5033026;28;20304;-58
2023/11/12 01:25:20;;;;;;;;;;;;;;;;;;5030718;28;20011;-59
2023/11/12 01:27:47;;;;;;;;;;;;;;;;;;5030421;28;20333;-59
2023/11/12 01:30:14;;;;;;;;;;;;;;;;;;5029188;28;19948;-59
2023/11/12 01:32:42;;;;;;;;;;;;;;;;;;5024904;28;19925;-56
2023/11/12 01:35:09;;;;;;;;;;;;;;;;;;5027620;28;19929;-57
2023/11/12 01:37:36;;;;;;;;;;;;;;;;;;5029666;28;19927;-57
2023/11/12 01:40:04;;;;;;;;;;;;;;;;;;5030156;28;20348;-59
2023/11/12 01:42:31;;;;;;;;;;;;;;;;;;5031906;28;19921;-58
2023/11/12 01:44:59;;;;;;;;;;;;;;;;;;5024617;28;19925;-59
2023/11/12 01:47:26;;;;;;;;;;;;;;;;;;5032383;28;19921;-58
2023/11/12 01:49:54;;;;;;;;;;;;;;;;;;5029976;28;20336;-58
2023/11/12 01:52:20;;;;;;;;;;;;;;;;;;5032602;28;19992;-58
2023/11/12 01:54:47;;;;;;;;;;;;;;;;;;5032572;28;20000;-59
2023/11/12 01:57:13;;;;;;;;;;;;;;;;;;5032644;28;19956;-58
2023/11/12 01:59:40;;;;;;;;;;;;;;;;;;5033021;28;20007;-60
2023/11/12 02:02:07;;;;;;;;;;;;;;;;;;5032707;28;20479;-59
2023/11/12 02:04:33;;;;;;;;;;;;;;;;;;5032876;28;19933;-59
2023/11/12 02:07:01;;;;;;;;;;;;;;;;;;5033280;28;19924;-60
2023/11/12 02:09:29;;;;;;;;;;;;;;;;;;5033090;28;19987;-60
2023/11/12 02:11:55;;;;;;;;;;;;;;;;;;5032581;28;20056;-60
2023/11/12 02:14:25;;;;;;;;;;;;;;;;;;5032482;28;19964;-59
2023/11/12 02:16:52;;;;;;;;;;;;;;;;;;5031852;28;19991;-58
2023/11/12 02:19:25;;;;;;;;;;;;;;;;;;5032670;28;19960;-60
2023/11/12 02:21:52;;;;;;;;;;;;;;;;;;5029889;28;20016;-58
2023/11/12 02:24:20;;;;;;;;;;;;;;;;;;5032202;28;20300;-58
2023/11/12 02:26:48;;;;;;;;;;;;;;;;;;5032105;28;19921;-59
2023/11/12 02:29:15;;;;;;;;;;;;;;;;;;5028794;28;20012;-58
2023/11/12 02:31:42;;;;;;;;;;;;;;;;;;5032255;28;20022;-59
2023/11/12 02:34:08;;;;;;;;;;;;;;;;;;5032167;28;20012;-60
2023/11/12 02:36:35;;;;;;;;;;;;;;;;;;5031491;28;20015;-60
2023/11/12 02:39:01;;;;;;;;;;;;;;;;;;5032149;28;20376;-60
2023/11/12 02:41:30;;;;;;;;;;;;;;;;;;5029857;28;19925;-58
2023/11/12 02:43:56;;;;;;;;;;;;;;;;;;5031679;28;20019;-60
2023/11/12 02:46:23;;;;;;;;;;;;;;;;;;5030350;28;19960;-60
2023/11/12 02:49:00;;;;;;;;;;;;;;;;;;5028677;28;19920;-60
2023/11/12 02:51:27;;;;;;;;;;;;;;;;;;5029999;28;20060;-59
2023/11/12 02:53:54;;;;;;;;;;;;;;;;;;5031616;28;19928;-59
2023/11/12 02:56:21;;;;;;;;;;;;;;;;;;5032133;28;19928;-58
2023/11/12 02:58:49;;;;;;;;;;;;;;;;;;5031965;28;20384;-58
2023/11/12 03:01:16;;;;;;;;;;;;;;;;;;5023768;28;19940;-59
2023/11/12 03:03:42;;;;;;;;;;;;;;;;;;5031956;28;19928;-59
2023/11/12 03:06:09;;;;;;;;;;;;;;;;;;5031694;28;19925;-59
2023/11/12 03:08:35;;;;;;;;;;;;;;;;;;5032204;28;19960;-58
2023/11/12 03:11:02;;;;;;;;;;;;;;;;;;5032106;28;19921;-59
2023/11/12 03:13:28;;;;;;;;;;;;;;;;;;5031384;28;20454;-59
2023/11/12 03:15:56;;;;;;;;;;;;;;;;;;5031766;28;19924;-59
2023/11/12 03:18:23;;;;;;;;;;;;;;;;;;5032018;28;19933;-60
2023/11/12 03:20:49;;;;;;;;;;;;;;;;;;5032243;28;20193;-58
2023/11/12 03:23:18;;;;;;;;;;;;;;;;;;5032634;28;19920;-59
2023/11/12 03:25:45;;;;;;;;;;;;;;;;;;5035597;28;19931;-57
2023/11/12 03:28:11;;;;;;;;;;;;;;;;;;5035752;28;19925;-58
2023/11/12 03:30:39;;;;;;;;;;;;;;;;;;5030273;28;20281;-59
2023/11/12 03:33:07;;;;;;;;;;;;;;;;;;5035704;28;19976;-59
2023/11/12 03:35:34;;;;;;;;;;;;;;;;;;5032831;28;20016;-58
2023/11/12 03:38:01;;;;;;;;;;;;;;;;;;5034088;28;19921;-57
2023/11/12 03:40:27;;;;;;;;;;;;;;;;;;5035437;28;20358;-59
2023/11/12 03:42:54;;;;;;;;;;;;;;;;;;5035619;28;19921;-60
2023/11/12 03:45:20;;;;;;;;;;;;;;;;;;5034461;28;19928;-60
2023/11/12 03:47:47;;;;;;;;;;;;;;;;;;5035267;28;20396;-58
2023/11/12 03:50:15;;;;;;;;;;;;;;;;;;5035643;28;19921;-58
2023/11/12 03:52:41;;;;;;;;;;;;;;;;;;5035385;28;20007;-58
2023/11/12 03:55:08;;;;;;;;;;;;;;;;;;5034833;28;20244;-58
2023/11/12 03:57:34;;;;;;;;;;;;;;;;;;5034571;28;20000;-58
2023/11/12 04:00:01;;;;;;;;;;;;;;;;;;5034122;28;20007;-59
2023/11/12 04:02:27;;;;;;;;;;;;;;;;;;5034714;28;19921;-57
2023/11/12 04:04:54;;;;;;;;;;;;;;;;;;5034994;28;19957;-57
2023/11/12 04:07:23;;;;;;;;;;;;;;;;;;5034400;28;19921;-59
2023/11/12 04:09:49;;;;;;;;;;;;;;;;;;5034746;28;20422;-59
2023/11/12 04:12:16;;;;;;;;;;;;;;;;;;5031049;28;19925;-60
2023/11/12 04:14:42;;;;;;;;;;;;;;;;;;5034811;28;19976;-57
2023/11/12 04:17:09;;;;;;;;;;;;;;;;;;5034168;28;20008;-59
2023/11/12 04:19:35;;;;;;;;;;;;;;;;;;5035245;28;20269;-58
2023/11/12 04:22:02;;;;;;;;;;;;;;;;;;5034593;28;20434;-59
2023/11/12 04:24:30;;;;;;;;;;;;;;;;;;5034911;28;19925;-58
2023/11/12 04:26:56;;;;;;;;;;;;;;;;;;5034057;28;20024;-59
2023/11/12 04:29:23;;;;;;;;;;;;;;;;;;5034394;28;19960;-59
2023/11/12 04:31:50;;;;;;;;;;;;;;;;;;5034271;28;19967;-56
2023/11/12 04:34:16;;;;;;;;;;;;;;;;;;5034010;28;20024;-59
2023/11/12 04:36:44;;;;;;;;;;;;;;;;;;5033867;28;20016;-59
2023/11/12 04:39:11;;;;;;;;;;;;;;;;;;5032844;28;19925;-58
2023/11/12 04:41:39;;;;;;;;;;;;;;;;;;5032901;28;20325;-60
2023/11/12 04:44:06;;;;;;;;;;;;;;;;;;5034507;28;19972;-59
2023/11/12 04:46:33;;;;;;;;;;;;;;;;;;5034091;28;19928;-55
2023/11/12 04:49:00;;;;;;;;;;;;;;;;;;5032038;28;20300;-58
2023/11/12 04:51:26;;;;;;;;;;;;;;;;;;5034264;28;19921;-59
2023/11/12 04:53:53;;;;;;;;;;;;;;;;;;5033930;28;20003;-58
2023/11/12 04:56:20;;;;;;;;;;;;;;;;;;5033257;28;19925;-59
2023/11/12 04:58:49;;;;;;;;;;;;;;;;;;5032104;28;19929;-59
2023/11/12 05:01:15;;;;;;;;;;;;;;;;;;5029160;28;20360;-58
2023/11/12 05:03:42;;;;;;;;;;;;;;;;;;5033876;28;20447;-65
2023/11/12 05:06:09;;;;;;;;;;;;;;;;;;5034293;28;20032;-59
2023/11/12 05:08:35;;;;;;;;;;;;;;;;;;5034562;28;20007;-59
2023/11/12 05:11:02;;;;;;;;;;;;;;;;;;5034098;28;19960;-59
2023/11/12 05:13:29;;;;;;;;;;;;;;;;;;5034123;28;20373;-59
2023/11/12 05:15:57;;;;;;;;;;;;;;;;;;5033816;28;19960;-59
2023/11/12 05:18:24;;;;;;;;;;;;;;;;;;5033683;28;20328;-58
2023/11/12 05:20:50;;;;;;;;;;;;;;;;;;5034214;28;19960;-58
2023/11/12 05:23:17;;;;;;;;;;;;;;;;;;5034258;28;20392;-59
2023/11/12 05:25:45;;;;;;;;;;;;;;;;;;5034251;28;19928;-60
2023/11/12 05:28:11;;;;;;;;;;;;;;;;;;5033509;28;19944;-60
2023/11/12 05:30:38;;;;;;;;;;;;;;;;;;5033018;28;20447;-60
2023/11/12 05:33:06;;;;;;;;;;;;;;;;;;5033485;28;19930;-59
2023/11/12 05:35:33;;;;;;;;;;;;;;;;;;5028480;28;20396;-60
2023/11/12 05:37:59;;;;;;;;;;;;;;;;;;5034163;28;19968;-60
2023/11/12 05:40:26;;;;;;;;;;;;;;;;;;5033963;28;19921;-59
2023/11/12 05:42:52;;;;;;;;;;;;;;;;;;5034053;28;20011;-59
2023/11/12 05:45:19;;;;;;;;;;;;;;;;;;5031891;28;20306;-59
2023/11/12 05:47:45;;;;;;;;;;;;;;;;;;5032868;28;19983;-59
2023/11/12 05:50:14;;;;;;;;;;;;;;;;;;5033196;28;19921;-59
2023/11/12 05:52:42;;;;;;;;;;;;;;;;;;5033411;28;19968;-59
2023/11/12 05:55:09;;;;;;;;;;;;;;;;;;5033599;28;19969;-60
2023/11/12 05:57:35;;;;;;;;;;;;;;;;;;5033475;28;20279;-60
2023/11/12 06:00:03;;;;;;;;;;;;;;;;;;5032843;28;19921;-60
2023/11/12 06:02:32;;;;;;;;;;;;;;;;;;5033413;28;20392;-63
2023/11/12 06:04:58;;;;;;;;;;;;;;;;;;5033495;28;20388;-60
2023/11/12 06:07:27;;;;;;;;;;;;;;;;;;5033160;28;19968;-59
2023/11/12 06:09:53;;;;;;;;;;;;;;;;;;5033140;28;19920;-60
2023/11/12 06:12:20;;;;;;;;;;;;;;;;;;5032821;28;20011;-59
2023/11/12 06:14:46;;;;;;;;;;;;;;;;;;5033135;28;19921;-60
2023/11/12 06:17:13;;;;;;;;;;;;;;;;;;5032927;28;19967;-59
2023/11/12 06:19:40;;;;;;;;;;;;;;;;;;5033548;28;19928;-60
2023/11/12 06:22:06;;;;;;;;;;;;;;;;;;5032611;28;19921;-58
2023/11/12 06:24:34;;;;;;;;;;;;;;;;;;5033387;28;20376;-60
2023/11/12 06:27:01;;;;;;;;;;;;;;;;;;5033088;28;19921;-60
2023/11/12 06:29:27;;;;;;;;;;;;;;;;;;5033717;28;20396;-61
2023/11/12 06:31:54;;;;;;;;;;;;;;;;;;5032214;28;19968;-58
2023/11/12 06:34:20;;;;;;;;;;;;;;;;;;5032772;28;20016;-57
2023/11/12 06:36:46;;;;;;;;;;;;;;;;;;5032578;28;20380;-60
2023/11/12 06:39:13;;;;;;;;;;;;;;;;;;5033053;28;19921;-59
2023/11/12 06:41:41;;;;;;;;;;;;;;;;;;5032566;28;19928;-60
2023/11/12 06:44:07;;;;;;;;;;;;;;;;;;5032153;28;19964;-59
2023/11/12 06:46:34;;;;;;;;;;;;;;;;;;5030206;28;19921;-59
2023/11/12 06:49:00;;;;;;;;;;;;;;;;;;5032360;28;19979;-58
2023/11/12 06:51:27;;;;;;;;;;;;;;;;;;5032270;28;19921;-60
2023/11/12 06:53:53;;;;;;;;;;;;;;;;;;5031512;28;20348;-58
2023/11/12 06:56:20;;;;;;;;;;;;;;;;;;5031925;28;20016;-59
2023/11/12 06:58:48;;;;;;;;;;;;;;;;;;5032203;28;20021;-59
2023/11/12 07:01:15;;;;;;;;;;;;;;;;;;5032221;28;19932;-60
2023/11/12 07:03:41;;;;;;;;;;;;;;;;;;5031853;28;20032;-59
2023/11/12 07:06:08;;;;;;;;;;;;;;;;;;5031611;28;19968;-57
2023/11/12 07:08:34;;;;;;;;;;;;;;;;;;5031995;28;19922;-59
2023/11/12 07:11:00;;;;;;;;;;;;;;;;;;5031628;28;20003;-58
2023/11/12 07:13:27;;;;;;;;;;;;;;;;;;5025431;28;19927;-60
2023/11/12 07:15:55;;;;;;;;;;;;;;;;;;5031601;28;20016;-59
2023/11/12 07:18:21;;;;;;;;;;;;;;;;;;5031963;28;20258;-59
2023/11/12 07:20:48;;;;;;;;;;;;;;;;;;5032077;28;20436;-58
2023/11/12 07:23:14;;;;;;;;;;;;;;;;;;5031502;28;19970;-58
2023/11/12 07:25:41;;;;;;;;;;;;;;;;;;5030537;28;19960;-59
2023/11/12 07:28:08;;;;;;;;;;;;;;;;;;5030973;28;19971;-60
2023/11/12 07:30:36;;;;;;;;;;;;;;;;;;5029873;28;20013;-58
2023/11/12 07:33:04;;;;;;;;;;;;;;;;;;5031514;28;19931;-59
2023/11/12 07:35:30;;;;;;;;;;;;;;;;;;5030908;28;19969;-59
2023/11/12 07:37:57;;;;;;;;;;;;;;;;;;5030655;28;19968;-59
2023/11/12 07:40:26;;;;;;;;;;;;;;;;;;5031955;28;20403;-60
2023/11/12 07:42:53;;;;;;;;;;;;;;;;;;5031845;28;20013;-58
2023/11/12 07:45:20;;;;;;;;;;;;;;;;;;5031579;28;19925;-58
2023/11/12 07:47:46;;;;;;;;;;;;;;;;;;5030965;28;20012;-60
2023/11/12 07:50:14;;;;;;;;;;;;;;;;;;5029125;28;19921;-60
2023/11/12 07:52:41;;;;;;;;;;;;;;;;;;5031291;28;20016;-59
2023/11/12 07:55:08;;;;;;;;;;;;;;;;;;5031396;28;19927;-59
2023/11/12 07:57:34;;;;;;;;;;;;;;;;;;5030768;28;19921;-59
2023/11/12 08:00:01;;;;;;;;;;;;;;;;;;5031621;28;19943;-59
2023/11/12 08:02:28;;;;;;;;;;;;;;;;;;5031657;28;19971;-59
2023/11/12 08:04:55;;;;;;;;;;;;;;;;;;5031479;28;19921;-60
2023/11/12 08:07:22;;;;;;;;;;;;;;;;;;5031419;28;19924;-58
2023/11/12 08:09:49;;;;;;;;;;;;;;;;;;5032897;28;20309;-59
2023/11/12 08:12:16;;;;;;;;;;;;;;;;;;5035160;28;19927;-59
2023/11/12 08:14:42;;;;;;;;;;;;;;;;;;5034863;28;19925;-59
2023/11/12 08:17:09;;;;;;;;;;;;;;;;;;5034334;28;19971;-60
2023/11/12 08:19:36;;;;;;;;;;;;;;;;;;5034615;28;20287;-59
2023/11/12 08:22:02;;;;;;;;;;;;;;;;;;5034941;28;19932;-59
2023/11/12 08:24:30;;;;;;;;;;;;;;;;;;5035036;28;19971;-59
2023/11/12 08:26:57;;;;;;;;;;;;;;;;;;5034760;28;20011;-59
2023/11/12 08:29:23;;;;;;;;;;;;;;;;;;5034361;28;20291;-59
2023/11/12 08:31:50;;;;;;;;;;;;;;;;;;5034521;28;19971;-56
2023/11/12 08:34:21;;;;;;;;;;;;;;;;;;5034382;28;19975;-59
2023/11/12 08:36:47;;;;;;;;;;;;;;;;;;5034573;28;19921;-58
2023/11/12 08:39:16;;;;;;;;;;;;;;;;;;5033862;28;19925;-59
2023/11/12 08:41:44;;;;;;;;;;;;;;;;;;5034219;28;19925;-59
2023/11/12 08:44:11;;;;;;;;;;;;;;;;;;5034339;28;20411;-58
2023/11/12 08:46:37;;;;;;;;;;;;;;;;;;5033457;28;19960;-59
2023/11/12 08:49:06;;;;;;;;;;;;;;;;;;5033355;28;20020;-59
2023/11/12 08:51:32;;;;;;;;;;;;;;;;;;5034122;28;19925;-59
2023/11/12 08:53:59;;;;;;;;;;;;;;;;;;5034064;28;20019;-57
2023/11/12 08:56:25;;;;;;;;;;;;;;;;;;5025159;28;19987;-58
2023/11/12 08:58:53;;;;;;;;;;;;;;;;;;5033209;28;19920;-57
2023/11/12 09:01:19;;;;;;;;;;;;;;;;;;5033248;28;20328;-56
2023/11/12 09:03:46;;;;;;;;;;;;;;;;;;5033641;28;20011;-59
2023/11/12 09:06:12;;;;;;;;;;;;;;;;;;5033878;28;20008;-58
2023/11/12 09:08:39;;;;;;;;;;;;;;;;;;5034227;28;20011;-58
2023/11/12 09:11:05;;;;;;;;;;;;;;;;;;5034022;28;20372;-58
2023/11/12 09:13:32;;;;;;;;;;;;;;;;;;5033901;28;20096;-59
2023/11/12 09:16:00;;;;;;;;;;;;;;;;;;5033697;28;19921;-60
2023/11/12 09:18:26;;;;;;;;;;;;;;;;;;5034254;28;19968;-57
2023/11/12 09:20:53;;;;;;;;;;;;;;;;;;5030814;28;19924;-59
2023/11/12 09:23:20;;;;;;;;;;;;;;;;;;5023469;28;20008;-58
2023/11/12 09:25:46;;;;;;;;;;;;;;;;;;5033591;28;19975;-59
2023/11/12 09:28:13;;;;;;;;;;;;;;;;;;5033183;28;20004;-59
2023/11/12 09:30:39;;;;;;;;;;;;;;;;;;5033571;28;19979;-59
2023/11/12 09:33:09;;;;;;;;;;;;;;;;;;5033645;28;20394;-60
2023/11/12 09:35:35;;;;;;;;;;;;;;;;;;5033429;28;20303;-59
2023/11/12 09:38:03;;;;;;;;;;;;;;;;;;5031537;28;20020;-59
2023/11/12 09:40:31;;;;;;;;;;;;;;;;;;5026077;28;19921;-58
2023/11/12 09:42:58;;;;;;;;;;;;;;;;;;5031416;28;19928;-57
2023/11/12 09:45:25;;;;;;;;;;;;;;;;;;5027090;28;19956;-58
2023/11/12 09:47:58;;;;;;;;;;;;;;;;;;5031593;28;19921;-59
2023/11/12 09:50:26;;;;;;;;;;;;;;;;;;5023559;28;20020;-59
2023/11/12 09:52:54;;;;;;;;;;;;;;;;;;5027557;28;20024;-59
2023/11/12 09:55:21;;;;;;;;;;;;;;;;;;5025487;28;20431;-59
2023/11/12 09:57:48;;;;;;;;;;;;;;;;;;5026754;28;19928;-60
2023/11/12 10:00:16;;;;;;;;;;;;;;;;;;5031824;28;20360;-60
2023/11/12 10:02:44;;;;;;;;;;;;;;;;;;5024329;28;19975;-68
2023/11/12 10:05:11;;;;;;;;;;;;;;;;;;5026440;28;20379;-64
2023/11/12 10:07:39;;;;;;;;;;;;;;;;;;5021491;28;20015;-60
2023/11/12 10:10:20;;;;;;;;;;;;;;;;;;5031582;28;20360;-59
2023/11/12 10:12:48;;;;;;;;;;;;;;;;;;5032451;28;19920;-56
2023/11/12 10:15:14;;;;;;;;;;;;;;;;;;5031130;28;19971;-58
2023/11/12 10:17:44;;;;;;;;;;;;;;;;;;5020800;28;19960;-63
2023/11/12 10:20:19;;;;;;;;;;;;;;;;;;5024516;28;20011;-61
2023/11/12 10:22:48;;;;;;;;;;;;;;;;;;5024491;28;19967;-59
2023/11/12 10:25:15;;;;;;;;;;;;;;;;;;5028178;28;19964;-59
2023/11/12 10:27:53;;;;;;;;;;;;;;;;;;5027751;28;19972;-58
2023/11/12 10:30:21;;;;;;;;;;;;;;;;;;5022999;28;19921;-61
2023/11/12 10:32:47;;;;;;;;;;;;;;;;;;5023285;28;19975;-58
2023/11/12 10:35:24;;;;;;;;;;;;;;;;;;5029122;28;20464;-63
2023/11/12 10:37:56;;;;;;;;;;;;;;;;;;5026765;28;19964;-56
2023/11/12 10:40:24;;;;;;;;;;;;;;;;;;5025952;28;19928;-60
2023/11/12 10:42:58;;;;;;;;;;;;;;;;;;5021860;28;19972;-59
2023/11/12 10:45:24;;;;;;;;;;;;;;;;;;5021985;28;19928;-57
2023/11/12 10:47:53;;;;;;;;;;;;;;;;;;5024488;28;19974;-55
2023/11/12 10:50:20;;;;;;;;;;;;;;;;;;5024728;28;20007;-58
2023/11/12 10:52:47;;;;;;;;;;;;;;;;;;5028060;28;19927;-57
2023/11/12 10:55:15;;;;;;;;;;;;;;;;;;5027041;28;19975;-58
2023/11/12 10:57:43;;;;;;;;;;;;;;;;;;5032254;28;19920;-58
2023/11/12 11:00:11;;;;;;;;;;;;;;;;;;5023698;28;20361;-57
2023/11/12 11:02:37;;;;;;;;;;;;;;;;;;5025476;28;19921;-56
2023/11/12 11:05:05;;;;;;;;;;;;;;;;;;5030131;28;19925;-58
2023/11/12 11:07:31;;;;;;;;;;;;;;;;;;5032214;28;20300;-57
2023/11/12 11:09:58;;;;;;;;;;;;;;;;;;5032190;28;19953;-57
2023/11/12 11:12:26;;;;;;;;;;;;;;;;;;5031806;28;20392;-57
2023/11/12 11:14:52;;;;;;;;;;;;;;;;;;5031422;28;19982;-57
2023/11/12 11:17:37;;;;;;;;;;;;;;;;;;5032067;28;19927;-58
2023/11/12 11:20:04;;;;;;;;;;;;;;;;;;5032257;28;19925;-58
2023/11/12 11:22:32;;;;;;;;;;;;;;;;;;5031844;28;20388;-58
2023/11/12 11:24:59;;;;;;;;;;;;;;;;;;5029372;28;20281;-57
2023/11/12 11:27:28;;;;;;;;;;;;;;;;;;5024911;28;19925;-58
2023/11/12 11:30:04;;;;;;;;;;;;;;;;;;5031037;28;19925;-57
2023/11/12 11:32:31;;;;;;;;;;;;;;;;;;5029830;28;19929;-57
2023/11/12 11:34:58;;;;;;;;;;;;;;;;;;5029580;28;19967;-51
2023/11/12 11:37:24;;;;;;;;;;;;;;;;;;5020425;28;19925;-57
2023/11/12 11:39:51;;;;;;;;;;;;;;;;;;5029538;28;19921;-57
2023/11/12 11:42:17;;;;;;;;;;;;;;;;;;5023595;28;19964;-57
2023/11/12 11:44:49;;;;;;;;;;;;;;;;;;5033700;28;19929;-56
2023/11/12 11:47:22;;;;;;;;;;;;;;;;;;5035169;28;19920;-56
2023/11/12 11:49:50;;;;;;;;;;;;;;;;;;5034600;28;19921;-58
2023/11/12 11:52:21;;;;;;;;;;;;;;;;;;5035653;28;19921;-58
2023/11/12 11:54:48;;;;;;;;;;;;;;;;;;5035643;28;19920;-58
2023/11/12 11:57:18;;;;;;;;;;;;;;;;;;5024500;28;19926;-58
2023/11/12 11:59:45;;;;;;;;;;;;;;;;;;5029467;28;20332;-58
2023/11/12 12:02:16;;;;;;;;;;;;;;;;;;5033477;28;19994;-59
2023/11/12 12:04:47;;;;;;;;;;;;;;;;;;5033411;28;20447;-57
2023/11/12 12:07:20;;;;;;;;;;;;;;;;;;5026873;28;19951;-57
2023/11/12 12:09:47;;;;;;;;;;;;;;;;;;5029544;28;19968;-59
2023/11/12 12:12:14;;;;;;;;;;;;;;;;;;5034227;28;20004;-57
2023/11/12 12:14:40;;;;;;;;;;;;;;;;;;5033579;28;19921;-58
2023/11/12 12:17:07;;;;;;;;;;;;;;;;;;5025298;28;19921;-57
2023/11/12 12:19:35;;;;;;;;;;;;;;;;;;5029439;28;20352;-57
2023/11/12 12:22:04;;;;;;;;;;;;;;;;;;5024601;28;20015;-58
2023/11/12 12:24:30;;;;;;;;;;;;;;;;;;5031494;28;19932;-59
2023/11/12 12:26:57;;;;;;;;;;;;;;;;;;5035278;28;19964;-59
2023/11/12 12:29:25;;;;;;;;;;;;;;;;;;5027485;28;19921;-58
2023/11/12 12:31:53;;;;;;;;;;;;;;;;;;5031403;28;20359;-59
2023/11/12 12:34:20;;;;;;;;;;;;;;;;;;5034424;28;19983;-58
2023/11/12 12:37:00;;;;;;;;;;;;;;;;;;5034466;28;20003;-59
2023/11/12 12:39:28;;;;;;;;;;;;;;;;;;5026957;28;20431;-59
2023/11/12 12:41:58;;;;;;;;;;;;;;;;;;5033520;28;19967;-59
2023/11/12 12:44:25;;;;;;;;;;;;;;;;;;5032886;28;19932;-59
2023/11/12 12:46:52;;;;;;;;;;;;;;;;;;5032599;28;20292;-59
2023/11/12 12:49:30;;;;;;;;;;;;;;;;;;5034137;28;19921;-57
2023/11/12 12:51:58;;;;;;;;;;;;;;;;;;5034330;28;19921;-57
2023/11/12 12:54:25;;;;;;;;;;;;;;;;;;5034272;28;19924;-56
2023/11/12 12:56:51;;;;;;;;;;;;;;;;;;5033380;28;19928;-56
2023/11/12 12:59:18;;;;;;;;;;;;;;;;;;5034131;28;19967;-57
2023/11/12 13:01:45;;;;;;;;;;;;;;;;;;5032072;28;20388;-59
2023/11/12 13:04:11;;;;;;;;;;;;;;;;;;5032811;28;19928;-56
2023/11/12 13:06:38;;;;;;;;;;;;;;;;;;5033897;28;20020;-59
2023/11/12 13:09:15;;;;;;;;;;;;;;;;;;5033980;28;19921;-58
2023/11/12 13:11:42;;;;;;;;;;;;;;;;;;5033973;28;20040;-59
2023/11/12 13:14:08;;;;;;;;;;;;;;;;;;5033557;28;19921;-54
2023/11/12 13:16:35;;;;;;;;;;;;;;;;;;5033647;28;20004;-58
2023/11/12 13:19:04;;;;;;;;;;;;;;;;;;5034042;28;19921;-58
2023/11/12 13:21:35;;;;;;;;;;;;;;;;;;5033837;28;20339;-56
2023/11/12 13:24:02;;;;;;;;;;;;;;;;;;5028448;28;19925;-58
2023/11/12 13:26:30;;;;;;;;;;;;;;;;;;5023420;28;19921;-58
2023/11/12 13:28:57;;;;;;;;;;;;;;;;;;5033187;28;20015;-56
2023/11/12 13:31:25;;;;;;;;;;;;;;;;;;5030721;28;20022;-58
2023/11/12 13:33:52;;;;;;;;;;;;;;;;;;5030917;28;19928;-58
2023/11/12 13:36:18;;;;;;;;;;;;;;;;;;5031582;28;20388;-56
2023/11/12 13:38:44;;;;;;;;;;;;;;;;;;5032989;28;20024;-56
2023/11/12 13:41:11;;;;;;;;;;;;;;;;;;5030841;28;19925;-56
2023/11/12 13:43:39;;;;;;;;;;;;;;;;;;5031845;28;19951;-57
2023/11/12 13:46:06;;;;;;;;;;;;;;;;;;5027979;28;19925;-59
2023/11/12 13:48:33;;;;;;;;;;;;;;;;;;5023136;28;19921;-57
2023/11/12 13:51:02;;;;;;;;;;;;;;;;;;5024520;28;20377;-56
2023/11/12 13:53:29;;;;;;;;;;;;;;;;;;5026776;28;19921;-57
2023/11/12 13:55:57;;;;;;;;;;;;;;;;;;5026489;28;19921;-57
2023/11/12 13:58:24;;;;;;;;;;;;;;;;;;5025830;28;19921;-58
2023/11/12 14:00:53;;;;;;;;;;;;;;;;;;5020081;28;19921;-59
2023/11/12 14:03:19;;;;;;;;;;;;;;;;;;5024607;28;19927;-60
2023/11/12 14:05:46;;;;;;;;;;;;;;;;;;5028505;28;20360;-57
2023/11/12 14:08:13;;;;;;;;;;;;;;;;;;5031803;28;19937;-58
2023/11/12 14:10:40;;;;;;;;;;;;;;;;;;5032739;28;19921;-58
2023/11/12 14:13:09;;;;;;;;;;;;;;;;;;5032728;28;20327;-58
2023/11/12 14:15:35;;;;;;;;;;;;;;;;;;5032576;28;19921;-61
2023/11/12 14:18:04;;;;;;;;;;;;;;;;;;5032442;28;19920;-59
2023/11/12 14:20:31;;;;;;;;;;;;;;;;;;5032731;28;20011;-57
2023/11/12 14:22:58;;;;;;;;;;;;;;;;;;5032667;28;20016;-58
2023/11/12 14:25:25;;;;;;;;;;;;;;;;;;5032776;28;19968;-60
2023/11/12 14:27:52;;;;;;;;;;;;;;;;;;5032383;28;20364;-58
2023/11/12 14:30:18;;;;;;;;;;;;;;;;;;5032502;28;19928;-60
2023/11/12 14:32:45;;;;;;;;;;;;;;;;;;5032275;28;20009;-58
2023/11/12 14:35:15;;;;;;;;;;;;;;;;;;5032409;28;20448;-59
2023/11/12 14:37:42;;;;;;;;;;;;;;;;;;5032157;28;20327;-58
2023/11/12 14:40:11;;;;;;;;;;;;;;;;;;5032327;28;20340;-58
2023/11/12 14:42:38;;;;;;;;;;;;;;;;;;5032248;28;19921;-56
2023/11/12 14:45:06;;;;;;;;;;;;;;;;;;5032046;28;19921;-58
2023/11/12 14:47:35;;;;;;;;;;;;;;;;;;5032296;28;19921;-57
2023/11/12 14:50:01;;;;;;;;;;;;;;;;;;5031810;28;19921;-60
2023/11/12 14:52:30;;;;;;;;;;;;;;;;;;5031598;28;20372;-56
2023/11/12 14:54:57;;;;;;;;;;;;;;;;;;5031295;28;19925;-60
2023/11/12 14:57:23;;;;;;;;;;;;;;;;;;5031731;28;19927;-59
2023/11/12 14:59:50;;;;;;;;;;;;;;;;;;5031850;28;20015;-58
2023/11/12 15:02:16;;;;;;;;;;;;;;;;;;5031866;28;19925;-57
2023/11/12 15:04:43;;;;;;;;;;;;;;;;;;5032038;28;19921;-57
2023/11/12 15:07:10;;;;;;;;;;;;;;;;;;5031460;28;19921;-57
2023/11/12 15:09:40;;;;;;;;;;;;;;;;;;5031869;28;20372;-57
2023/11/12 15:12:08;;;;;;;;;;;;;;;;;;5031526;28;20462;-58
2023/11/12 15:14:34;;;;;;;;;;;;;;;;;;5032034;28;19921;-58
2023/11/12 15:17:01;;;;;;;;;;;;;;;;;;5031623;28;20004;-59
2023/11/12 15:19:28;;;;;;;;;;;;;;;;;;5037180;28;19928;-58
2023/11/12 15:21:55;;;;;;;;;;;;;;;;;;5038296;28;20351;-59
2023/11/12 15:24:22;;;;;;;;;;;;;;;;;;5038377;28;19921;-59
2023/11/12 15:26:49;;;;;;;;;;;;;;;;;;5038168;28;19921;-56
2023/11/12 15:29:16;;;;;;;;;;;;;;;;;;5038968;28;20388;-58
2023/11/12 15:31:42;;;;;;;;;;;;;;;;;;5038855;28;19921;-56
2023/11/12 15:34:09;;;;;;;;;;;;;;;;;;5038335;28;19921;-57
2023/11/12 15:36:35;;;;;;;;;;;;;;;;;;5038434;28;20440;-61
2023/11/12 15:39:05;;;;;;;;;;;;;;;;;;5038389;28;20419;-59
2023/11/12 15:41:32;;;;;;;;;;;;;;;;;;5038482;28;19925;-59
2023/11/12 15:44:00;;;;;;;;;;;;;;;;;;5038340;28;20432;-56
2023/11/12 15:46:27;;;;;;;;;;;;;;;;;;5038247;28;20111;-60
2023/11/12 15:48:53;;;;;;;;;;;;;;;;;;5038464;28;19925;-57
2023/11/12 15:51:22;;;;;;;;;;;;;;;;;;5038375;28;20011;-57
2023/11/12 15:53:48;;;;;;;;;;;;;;;;;;5038041;28;20024;-57
2023/11/12 15:56:16;;;;;;;;;;;;;;;;;;5038320;28;19920;-57
2023/11/12 15:58:42;;;;;;;;;;;;;;;;;;5038404;28;20368;-58
2023/11/12 16:01:11;;;;;;;;;;;;;;;;;;5038448;28;20391;-58
2023/11/12 16:03:37;;;;;;;;;;;;;;;;;;5038027;28;19925;-58
2023/11/12 16:06:04;;;;;;;;;;;;;;;;;;5038203;28;20008;-56
2023/11/12 16:08:31;;;;;;;;;;;;;;;;;;5032920;28;20008;-60
2023/11/12 16:10:57;;;;;;;;;;;;;;;;;;5028666;28;19972;-57
2023/11/12 16:13:24;;;;;;;;;;;;;;;;;;5036699;28;20006;-57
2023/11/12 16:15:50;;;;;;;;;;;;;;;;;;5038395;28;19928;-58
2023/11/12 16:18:19;;;;;;;;;;;;;;;;;;5037865;28;20021;-58
2023/11/12 16:20:45;;;;;;;;;;;;;;;;;;5037000;28;19924;-60
2023/11/12 16:23:12;;;;;;;;;;;;;;;;;;5034095;28;20416;-57
2023/11/12 16:25:38;;;;;;;;;;;;;;;;;;5037861;28;19928;-60
2023/11/12 16:28:05;;;;;;;;;;;;;;;;;;5031065;28;19932;-57
2023/11/12 16:30:32;;;;;;;;;;;;;;;;;;5035001;28;19921;-57
2023/11/12 16:32:59;;;;;;;;;;;;;;;;;;5034528;28;20003;-57
2023/11/12 16:35:26;;;;;;;;;;;;;;;;;;5034618;28;19977;-57
2023/11/12 16:37:55;;;;;;;;;;;;;;;;;;5035054;28;20016;-56
2023/11/12 16:40:22;;;;;;;;;;;;;;;;;;5035173;28;20653;-58
2023/11/12 16:42:49;;;;;;;;;;;;;;;;;;5035438;28;20020;-58
2023/11/12 16:45:16;;;;;;;;;;;;;;;;;;5034642;28;20010;-59
2023/11/12 16:47:43;;;;;;;;;;;;;;;;;;5034630;28;19921;-58